Time;durP1;ratioP1;P1;durP2;ratioP2;P2;SDS_P1;SDS_P2;PMS_P1;PMS_P2;Temp;Humidity;BMP_temperature;BMP_pressure;BME280_temperature;BME280_humidity;BME280_pressure;Samples;Min_cycle;Max_cycle;Signal;HPM_P1;HPM_P2
2023/11/16 00:01:19;;;;;;;;;;;;;;;;;;5093804;28;19962;-73
2023/11/16 00:03:45;;;;;;;;;;;;;;;;;;5094228;28;19916;-73
2023/11/16 00:06:11;;;;;;;;;;;;;;;;;;5094175;28;19916;-73
2023/11/16 00:08:37;;;;;;;;;;;;;;;;;;5093762;28;19914;-73
2023/11/16 00:11:03;;;;;;;;;;;;;;;;;;5094406;28;20411;-73
2023/11/16 00:13:29;;;;;;;;;;;;;;;;;;5094059;28;19908;-73
2023/11/16 00:15:55;;;;;;;;;;;;;;;;;;5093625;28;19908;-72
2023/11/16 00:18:22;;;;;;;;;;;;;;;;;;5094438;28;20428;-72
2023/11/16 00:20:48;;;;;;;;;;;;;;;;;;5093517;28;20383;-72
2023/11/16 00:23:14;;;;;;;;;;;;;;;;;;5093747;28;19928;-73
2023/11/16 00:25:40;;;;;;;;;;;;;;;;;;5093931;28;19912;-73
2023/11/16 00:28:07;;;;;;;;;;;;;;;;;;5093342;28;19916;-73
2023/11/16 00:30:33;;;;;;;;;;;;;;;;;;5092628;28;19908;-73
2023/11/16 00:32:59;;;;;;;;;;;;;;;;;;5093839;28;19931;-73
2023/11/16 00:35:25;;;;;;;;;;;;;;;;;;5093474;28;20003;-73
2023/11/16 00:37:52;;;;;;;;;;;;;;;;;;5094124;28;19915;-73
2023/11/16 00:40:18;;;;;;;;;;;;;;;;;;5093772;28;20383;-73
2023/11/16 00:42:44;;;;;;;;;;;;;;;;;;5093371;28;19908;-73
2023/11/16 00:45:10;;;;;;;;;;;;;;;;;;5093794;28;20011;-73
2023/11/16 00:47:36;;;;;;;;;;;;;;;;;;5093701;28;19916;-72
2023/11/16 00:50:02;;;;;;;;;;;;;;;;;;5093271;28;19947;-73
2023/11/16 00:52:28;;;;;;;;;;;;;;;;;;5093641;28;19908;-73
2023/11/16 00:54:55;;;;;;;;;;;;;;;;;;5094179;28;20267;-73
2023/11/16 00:57:22;;;;;;;;;;;;;;;;;;5093394;28;19958;-73
2023/11/16 00:59:48;;;;;;;;;;;;;;;;;;5093590;28;19908;-73
2023/11/16 01:02:14;;;;;;;;;;;;;;;;;;5093730;28;19916;-73
2023/11/16 01:04:41;;;;;;;;;;;;;;;;;;5093069;28;19927;-73
2023/11/16 01:07:08;;;;;;;;;;;;;;;;;;5093516;28;19927;-73
2023/11/16 01:09:35;;;;;;;;;;;;;;;;;;5093815;28;19909;-73
2023/11/16 01:12:02;;;;;;;;;;;;;;;;;;5091805;28;19908;-72
2023/11/16 01:14:28;;;;;;;;;;;;;;;;;;5093475;28;19935;-72
2023/11/16 01:16:56;;;;;;;;;;;;;;;;;;5092959;28;19954;-72
2023/11/16 01:19:26;;;;;;;;;;;;;;;;;;5092135;28;20314;-72
2023/11/16 01:21:55;;;;;;;;;;;;;;;;;;5093651;28;20273;-72
2023/11/16 01:24:23;;;;;;;;;;;;;;;;;;5092772;28;19919;-73
2023/11/16 01:26:52;;;;;;;;;;;;;;;;;;5093326;28;19915;-73
2023/11/16 01:29:18;;;;;;;;;;;;;;;;;;5093306;28;19909;-73
2023/11/16 01:31:44;;;;;;;;;;;;;;;;;;5094292;28;19908;-73
2023/11/16 01:34:10;;;;;;;;;;;;;;;;;;5096977;28;19965;-73
2023/11/16 01:36:36;;;;;;;;;;;;;;;;;;5097202;28;19951;-73
2023/11/16 01:39:02;;;;;;;;;;;;;;;;;;5095184;28;19908;-73
2023/11/16 01:41:28;;;;;;;;;;;;;;;;;;5096868;28;19915;-73
2023/11/16 01:43:54;;;;;;;;;;;;;;;;;;5096727;28;20084;-73
2023/11/16 01:46:20;;;;;;;;;;;;;;;;;;5096183;28;19919;-73
2023/11/16 01:48:46;;;;;;;;;;;;;;;;;;5096679;28;19908;-73
2023/11/16 01:51:12;;;;;;;;;;;;;;;;;;5096557;28;19931;-73
2023/11/16 01:53:38;;;;;;;;;;;;;;;;;;5096122;28;19908;-73
2023/11/16 01:56:04;;;;;;;;;;;;;;;;;;5096499;28;19908;-73
2023/11/16 01:58:32;;;;;;;;;;;;;;;;;;5096429;28;19916;-73
2023/11/16 02:00:58;;;;;;;;;;;;;;;;;;5096002;28;19915;-73
2023/11/16 02:03:24;;;;;;;;;;;;;;;;;;5096233;28;19922;-73
2023/11/16 02:05:50;;;;;;;;;;;;;;;;;;5096292;28;19995;-73
2023/11/16 02:08:16;;;;;;;;;;;;;;;;;;5095903;28;19919;-73
2023/11/16 02:10:42;;;;;;;;;;;;;;;;;;5096656;28;20288;-73
2023/11/16 02:13:08;;;;;;;;;;;;;;;;;;5094846;28;20257;-73
2023/11/16 02:15:34;;;;;;;;;;;;;;;;;;5096267;28;19915;-72
2023/11/16 02:18:01;;;;;;;;;;;;;;;;;;5096144;28;19919;-72
2023/11/16 02:20:28;;;;;;;;;;;;;;;;;;5095692;28;19962;-72
2023/11/16 02:22:54;;;;;;;;;;;;;;;;;;5095815;28;19923;-73
2023/11/16 02:25:20;;;;;;;;;;;;;;;;;;5096331;28;19912;-73
2023/11/16 02:27:46;;;;;;;;;;;;;;;;;;5095584;28;19913;-73
2023/11/16 02:30:15;;;;;;;;;;;;;;;;;;5095888;28;19908;-73
2023/11/16 02:32:41;;;;;;;;;;;;;;;;;;5095989;28;19908;-73
2023/11/16 02:35:08;;;;;;;;;;;;;;;;;;5095788;28;20004;-74
2023/11/16 02:37:35;;;;;;;;;;;;;;;;;;5095939;28;19961;-73
2023/11/16 02:40:00;;;;;;;;;;;;;;;;;;5096239;28;19908;-73
2023/11/16 02:42:26;;;;;;;;;;;;;;;;;;5095242;28;20371;-73
2023/11/16 02:44:57;;;;;;;;;;;;;;;;;;5095591;28;20402;-73
2023/11/16 02:47:23;;;;;;;;;;;;;;;;;;5096165;28;19931;-73
2023/11/16 02:49:49;;;;;;;;;;;;;;;;;;5095330;28;20352;-73
2023/11/16 02:52:15;;;;;;;;;;;;;;;;;;5095571;28;20368;-73
2023/11/16 02:54:41;;;;;;;;;;;;;;;;;;5095528;28;20307;-73
2023/11/16 02:57:09;;;;;;;;;;;;;;;;;;5093672;28;19909;-74
2023/11/16 02:59:35;;;;;;;;;;;;;;;;;;5095410;28;19915;-73
2023/11/16 03:02:06;;;;;;;;;;;;;;;;;;5095403;28;19908;-73
2023/11/16 03:04:31;;;;;;;;;;;;;;;;;;5093492;28;20352;-74
2023/11/16 03:06:57;;;;;;;;;;;;;;;;;;5095203;28;19916;-74
2023/11/16 03:09:23;;;;;;;;;;;;;;;;;;5093857;28;19908;-73
2023/11/16 03:11:49;;;;;;;;;;;;;;;;;;5095086;28;19954;-73
2023/11/16 03:14:15;;;;;;;;;;;;;;;;;;5095052;28;19908;-73
2023/11/16 03:16:41;;;;;;;;;;;;;;;;;;5095061;28;20370;-73
2023/11/16 03:19:09;;;;;;;;;;;;;;;;;;5095538;28;20340;-73
2023/11/16 03:21:35;;;;;;;;;;;;;;;;;;5094917;28;19961;-73
2023/11/16 03:24:01;;;;;;;;;;;;;;;;;;5094330;28;20016;-73
2023/11/16 03:26:27;;;;;;;;;;;;;;;;;;5094859;28;19947;-73
2023/11/16 03:28:53;;;;;;;;;;;;;;;;;;5094817;28;19909;-73
2023/11/16 03:31:19;;;;;;;;;;;;;;;;;;5094341;28;19961;-73
2023/11/16 03:33:45;;;;;;;;;;;;;;;;;;5094786;28;19908;-73
2023/11/16 03:36:13;;;;;;;;;;;;;;;;;;5094685;28;20037;-74
2023/11/16 03:38:39;;;;;;;;;;;;;;;;;;5092907;28;19908;-74
2023/11/16 03:41:05;;;;;;;;;;;;;;;;;;5094676;28;20011;-74
2023/11/16 03:43:31;;;;;;;;;;;;;;;;;;5093234;28;19923;-73
2023/11/16 03:45:57;;;;;;;;;;;;;;;;;;5094257;28;19991;-74
2023/11/16 03:48:23;;;;;;;;;;;;;;;;;;5094499;28;19908;-74
2023/11/16 03:50:49;;;;;;;;;;;;;;;;;;5094511;28;19915;-72
2023/11/16 03:53:15;;;;;;;;;;;;;;;;;;5092280;28;19915;-74
2023/11/16 03:55:41;;;;;;;;;;;;;;;;;;5094655;28;19912;-73
2023/11/16 03:58:07;;;;;;;;;;;;;;;;;;5094508;28;20390;-74
2023/11/16 04:00:33;;;;;;;;;;;;;;;;;;5093924;28;19961;-73
2023/11/16 04:02:59;;;;;;;;;;;;;;;;;;5094192;28;20310;-74
2023/11/16 04:05:29;;;;;;;;;;;;;;;;;;5094253;28;19912;-73
2023/11/16 04:07:55;;;;;;;;;;;;;;;;;;5092467;28;19908;-74
2023/11/16 04:10:21;;;;;;;;;;;;;;;;;;5092861;28;19908;-73
2023/11/16 04:12:47;;;;;;;;;;;;;;;;;;5093767;28;19930;-73
2023/11/16 04:15:13;;;;;;;;;;;;;;;;;;5094171;28;19908;-73
2023/11/16 04:17:39;;;;;;;;;;;;;;;;;;5094060;28;19914;-73
2023/11/16 04:20:07;;;;;;;;;;;;;;;;;;5092518;28;19912;-73
2023/11/16 04:22:38;;;;;;;;;;;;;;;;;;5093712;28;19916;-73
2023/11/16 04:25:07;;;;;;;;;;;;;;;;;;5094630;28;19916;-73
2023/11/16 04:27:33;;;;;;;;;;;;;;;;;;5093522;28;19908;-73
2023/11/16 04:29:59;;;;;;;;;;;;;;;;;;5092680;28;19917;-73
2023/11/16 04:32:27;;;;;;;;;;;;;;;;;;5094088;28;20333;-73
2023/11/16 04:34:53;;;;;;;;;;;;;;;;;;5093820;28;19908;-73
2023/11/16 04:37:19;;;;;;;;;;;;;;;;;;5093869;28;19908;-74
2023/11/16 04:39:45;;;;;;;;;;;;;;;;;;5093812;28;19908;-74
2023/11/16 04:42:11;;;;;;;;;;;;;;;;;;5093445;28;19908;-74
2023/11/16 04:44:37;;;;;;;;;;;;;;;;;;5092484;28;19923;-74
2023/11/16 04:47:05;;;;;;;;;;;;;;;;;;5093752;28;19914;-74
2023/11/16 04:49:31;;;;;;;;;;;;;;;;;;5093497;28;20393;-74
2023/11/16 04:51:57;;;;;;;;;;;;;;;;;;5093699;28;19943;-73
2023/11/16 04:54:23;;;;;;;;;;;;;;;;;;5093701;28;20379;-74
2023/11/16 04:56:49;;;;;;;;;;;;;;;;;;5093407;28;19908;-74
2023/11/16 04:59:15;;;;;;;;;;;;;;;;;;5093650;28;19915;-74
2023/11/16 05:01:41;;;;;;;;;;;;;;;;;;5093883;28;19908;-75
2023/11/16 05:04:07;;;;;;;;;;;;;;;;;;5093232;28;19916;-73
2023/11/16 05:06:33;;;;;;;;;;;;;;;;;;5096216;28;20364;-74
2023/11/16 05:08:59;;;;;;;;;;;;;;;;;;5097262;28;19915;-74
2023/11/16 05:11:26;;;;;;;;;;;;;;;;;;5097553;28;19908;-74
2023/11/16 05:13:52;;;;;;;;;;;;;;;;;;5097399;28;19961;-73
2023/11/16 05:16:18;;;;;;;;;;;;;;;;;;5096976;28;19912;-73
2023/11/16 05:18:44;;;;;;;;;;;;;;;;;;5097276;28;19923;-73
2023/11/16 05:21:10;;;;;;;;;;;;;;;;;;5097405;28;19916;-73
2023/11/16 05:23:36;;;;;;;;;;;;;;;;;;5096613;28;19920;-73
2023/11/16 05:26:02;;;;;;;;;;;;;;;;;;5096020;28;19909;-73
2023/11/16 05:28:27;;;;;;;;;;;;;;;;;;5097341;28;20371;-73
2023/11/16 05:30:53;;;;;;;;;;;;;;;;;;5096718;28;20274;-73
2023/11/16 05:33:22;;;;;;;;;;;;;;;;;;5097131;28;20401;-73
2023/11/16 05:35:48;;;;;;;;;;;;;;;;;;5097002;28;19908;-73
2023/11/16 05:38:15;;;;;;;;;;;;;;;;;;5095205;28;19908;-73
2023/11/16 05:40:42;;;;;;;;;;;;;;;;;;5097061;28;19908;-73
2023/11/16 05:43:08;;;;;;;;;;;;;;;;;;5097027;28;19919;-73
2023/11/16 05:45:34;;;;;;;;;;;;;;;;;;5096310;28;19913;-74
2023/11/16 05:48:00;;;;;;;;;;;;;;;;;;5095435;28;19912;-73
2023/11/16 05:50:26;;;;;;;;;;;;;;;;;;5095328;28;20062;-72
2023/11/16 05:52:53;;;;;;;;;;;;;;;;;;5096139;28;19909;-73
2023/11/16 05:55:20;;;;;;;;;;;;;;;;;;5096628;28;20002;-72
2023/11/16 05:57:47;;;;;;;;;;;;;;;;;;5096496;28;19953;-73
2023/11/16 06:00:14;;;;;;;;;;;;;;;;;;5095988;28;19912;-72
2023/11/16 06:02:39;;;;;;;;;;;;;;;;;;5096315;28;20066;-72
2023/11/16 06:05:05;;;;;;;;;;;;;;;;;;5096280;28;19957;-73
2023/11/16 06:07:31;;;;;;;;;;;;;;;;;;5095970;28;20367;-73
2023/11/16 06:09:57;;;;;;;;;;;;;;;;;;5096236;28;20360;-73
2023/11/16 06:12:23;;;;;;;;;;;;;;;;;;5095757;28;19991;-73
2023/11/16 06:14:52;;;;;;;;;;;;;;;;;;5096328;28;19912;-73
2023/11/16 06:17:18;;;;;;;;;;;;;;;;;;5094415;28;20463;-72
2023/11/16 06:19:44;;;;;;;;;;;;;;;;;;5095797;28;19995;-73
2023/11/16 06:22:10;;;;;;;;;;;;;;;;;;5093812;28;19916;-72
2023/11/16 06:24:36;;;;;;;;;;;;;;;;;;5094958;28;19924;-73
2023/11/16 06:27:04;;;;;;;;;;;;;;;;;;5094935;28;19915;-85
2023/11/16 06:29:30;;;;;;;;;;;;;;;;;;5093813;28;19928;-78
2023/11/16 06:31:56;;;;;;;;;;;;;;;;;;5095104;28;20260;-76
2023/11/16 06:34:22;;;;;;;;;;;;;;;;;;5091817;28;19913;-69
2023/11/16 06:36:49;;;;;;;;;;;;;;;;;;5094352;28;20046;-69
2023/11/16 06:39:15;;;;;;;;;;;;;;;;;;5094171;28;20003;-69
2023/11/16 06:41:41;;;;;;;;;;;;;;;;;;5093563;28;19916;-69
2023/11/16 06:44:07;;;;;;;;;;;;;;;;;;5093824;28;19920;-69
2023/11/16 06:46:34;;;;;;;;;;;;;;;;;;5094470;28;19912;-69
2023/11/16 06:49:01;;;;;;;;;;;;;;;;;;5101013;28;20264;-68
2023/11/16 06:51:27;;;;;;;;;;;;;;;;;;5094457;28;19920;-69
2023/11/16 06:53:53;;;;;;;;;;;;;;;;;;5095181;28;19908;-68
2023/11/16 06:56:20;;;;;;;;;;;;;;;;;;5093331;28;19919;-69
2023/11/16 06:58:47;;;;;;;;;;;;;;;;;;5094704;28;19912;-71
2023/11/16 07:01:13;;;;;;;;;;;;;;;;;;5094614;28;20615;-69
2023/11/16 07:03:39;;;;;;;;;;;;;;;;;;5094195;28;19986;-68
2023/11/16 07:06:05;;;;;;;;;;;;;;;;;;5093849;28;19922;-68
2023/11/16 07:08:31;;;;;;;;;;;;;;;;;;5092367;28;19966;-68
2023/11/16 07:10:57;;;;;;;;;;;;;;;;;;5083044;28;19969;-68
2023/11/16 07:13:23;;;;;;;;;;;;;;;;;;5088172;28;19912;-69
2023/11/16 07:15:49;;;;;;;;;;;;;;;;;;5088547;28;20303;-69
2023/11/16 07:18:19;;;;;;;;;;;;;;;;;;5090519;28;19961;-69
2023/11/16 07:20:45;;;;;;;;;;;;;;;;;;5088522;28;19912;-70
2023/11/16 07:23:11;;;;;;;;;;;;;;;;;;5086610;28;19985;-69
2023/11/16 07:25:37;;;;;;;;;;;;;;;;;;5088476;28;20468;-68
2023/11/16 07:28:04;;;;;;;;;;;;;;;;;;5089887;28;19908;-69
2023/11/16 07:30:32;;;;;;;;;;;;;;;;;;5090153;28;19923;-70
2023/11/16 07:32:58;;;;;;;;;;;;;;;;;;5091531;28;20081;-69
2023/11/16 07:35:26;;;;;;;;;;;;;;;;;;5089723;28;20000;-70
2023/11/16 07:37:53;;;;;;;;;;;;;;;;;;5091858;28;19999;-69
2023/11/16 07:40:19;;;;;;;;;;;;;;;;;;5091693;28;19912;-70
2023/11/16 07:42:46;;;;;;;;;;;;;;;;;;5090246;28;19919;-70
2023/11/16 07:45:12;;;;;;;;;;;;;;;;;;5091708;28;20287;-69
2023/11/16 07:47:38;;;;;;;;;;;;;;;;;;5090293;28;20011;-67
2023/11/16 07:50:05;;;;;;;;;;;;;;;;;;5090597;28;19961;-66
2023/11/16 07:52:31;;;;;;;;;;;;;;;;;;5091509;28;20375;-67
2023/11/16 07:54:57;;;;;;;;;;;;;;;;;;5092698;28;20403;-68
2023/11/16 07:57:25;;;;;;;;;;;;;;;;;;5099472;28;19915;-68
2023/11/16 07:59:54;;;;;;;;;;;;;;;;;;5093720;28;19936;-68
2023/11/16 08:02:28;;;;;;;;;;;;;;;;;;5092192;28;19920;-67
2023/11/16 08:04:54;;;;;;;;;;;;;;;;;;5104911;28;19920;-68
2023/11/16 08:07:23;;;;;;;;;;;;;;;;;;5090463;28;20015;-68
2023/11/16 08:09:50;;;;;;;;;;;;;;;;;;5089374;28;20001;-68
2023/11/16 08:12:16;;;;;;;;;;;;;;;;;;5089589;28;19908;-69
2023/11/16 08:14:42;;;;;;;;;;;;;;;;;;5090772;28;19969;-67
2023/11/16 08:17:12;;;;;;;;;;;;;;;;;;5089124;28;20309;-68
2023/11/16 08:19:38;;;;;;;;;;;;;;;;;;5088345;28;19938;-69
2023/11/16 08:22:04;;;;;;;;;;;;;;;;;;5089832;28;19912;-68
2023/11/16 08:24:30;;;;;;;;;;;;;;;;;;5083145;28;19920;-68
2023/11/16 08:26:58;;;;;;;;;;;;;;;;;;5072671;28;19916;-69
2023/11/16 08:29:24;;;;;;;;;;;;;;;;;;5074008;28;20375;-67
2023/11/16 08:31:54;;;;;;;;;;;;;;;;;;5082187;28;19916;-68
2023/11/16 08:34:26;;;;;;;;;;;;;;;;;;5072442;28;20096;-71
2023/11/16 08:36:52;;;;;;;;;;;;;;;;;;5072885;28;19920;-69
2023/11/16 08:39:19;;;;;;;;;;;;;;;;;;5073407;28;19909;-70
2023/11/16 08:41:46;;;;;;;;;;;;;;;;;;5077546;28;19912;-70
2023/11/16 08:44:14;;;;;;;;;;;;;;;;;;5076063;28;20376;-67
2023/11/16 08:46:44;;;;;;;;;;;;;;;;;;5079738;28;19912;-69
2023/11/16 08:49:10;;;;;;;;;;;;;;;;;;5080265;28;20000;-68
2023/11/16 08:51:38;;;;;;;;;;;;;;;;;;5093155;28;19912;-68
2023/11/16 08:54:07;;;;;;;;;;;;;;;;;;5089896;28;19973;-70
2023/11/16 08:56:34;;;;;;;;;;;;;;;;;;5076427;28;19912;-69
2023/11/16 08:59:07;;;;;;;;;;;;;;;;;;5059630;28;19916;-66
2023/11/16 09:01:35;;;;;;;;;;;;;;;;;;5080365;28;19913;-67
2023/11/16 09:04:01;;;;;;;;;;;;;;;;;;5058897;28;19920;-70
2023/11/16 09:06:30;;;;;;;;;;;;;;;;;;5072082;28;19913;-71
2023/11/16 09:08:59;;;;;;;;;;;;;;;;;;5075910;28;19912;-70
2023/11/16 09:11:27;;;;;;;;;;;;;;;;;;5075630;28;19924;-73
2023/11/16 09:13:53;;;;;;;;;;;;;;;;;;5095699;28;20310;-73
2023/11/16 09:16:21;;;;;;;;;;;;;;;;;;5094371;28;19923;-69
2023/11/16 09:18:47;;;;;;;;;;;;;;;;;;5076935;28;19912;-71
2023/11/16 09:21:14;;;;;;;;;;;;;;;;;;5071692;28;19995;-71
2023/11/16 09:23:40;;;;;;;;;;;;;;;;;;5085541;28;19928;-69
2023/11/16 09:26:09;;;;;;;;;;;;;;;;;;5094459;28;20295;-69
2023/11/16 09:28:38;;;;;;;;;;;;;;;;;;5093166;28;19962;-68
2023/11/16 09:31:04;;;;;;;;;;;;;;;;;;5091618;28;20492;-69
2023/11/16 09:33:31;;;;;;;;;;;;;;;;;;5093454;28;19920;-69
2023/11/16 09:35:58;;;;;;;;;;;;;;;;;;5091718;28;19938;-69
2023/11/16 09:38:24;;;;;;;;;;;;;;;;;;5099859;28;19985;-70
2023/11/16 09:40:50;;;;;;;;;;;;;;;;;;5107616;28;19916;-70
2023/11/16 09:43:16;;;;;;;;;;;;;;;;;;5093173;28;19924;-69
2023/11/16 09:45:43;;;;;;;;;;;;;;;;;;5091799;28;20344;-74
2023/11/16 09:48:12;;;;;;;;;;;;;;;;;;5095001;28;19977;-69
2023/11/16 09:50:41;;;;;;;;;;;;;;;;;;5094825;28;19912;-68
2023/11/16 09:53:07;;;;;;;;;;;;;;;;;;5093889;28;19919;-74
2023/11/16 09:55:33;;;;;;;;;;;;;;;;;;5093173;28;19912;-72
2023/11/16 09:58:10;;;;;;;;;;;;;;;;;;5101908;28;20378;-74
2023/11/16 10:02:15;;;;;;;;;;;;;;;;;;5107582;27;19927;-72
2023/11/16 10:05:22;;;;;;;;;;;;;;;;;;5082535;27;20303;-73
2023/11/16 10:09:36;;;;;;;;;;;;;;;;;;5087384;27;19922;-73
2023/11/16 10:13:26;;;;;;;;;;;;;;;;;;5096477;27;19920;-71
2023/11/16 10:15:55;;;;;;;;;;;;;;;;;;5076277;28;19919;-71
2023/11/16 10:18:21;;;;;;;;;;;;;;;;;;5084217;28;19920;-71
2023/11/16 10:22:54;;;;;;;;;;;;;;;;;;5103178;27;19924;-71
2023/11/16 10:25:31;;;;;;;;;;;;;;;;;;5108985;27;19920;-72
2023/11/16 10:31:54;;;;;;;;;;;;;;;;;;5115717;27;19920;-68
2023/11/16 10:34:20;;;;;;;;;;;;;;;;;;5106632;28;19977;-69
2023/11/16 10:36:46;;;;;;;;;;;;;;;;;;5107100;28;20559;-70
2023/11/16 10:39:12;;;;;;;;;;;;;;;;;;5107537;28;19958;-70
2023/11/16 10:41:38;;;;;;;;;;;;;;;;;;5106210;28;19912;-70
2023/11/16 10:44:31;;;;;;;;;;;;;;;;;;5078071;28;20284;-71
2023/11/16 10:46:59;;;;;;;;;;;;;;;;;;5055767;28;19923;-69
2023/11/16 10:49:26;;;;;;;;;;;;;;;;;;5060678;28;19913;-72
2023/11/16 10:51:53;;;;;;;;;;;;;;;;;;5067277;28;19960;-71
2023/11/16 10:54:19;;;;;;;;;;;;;;;;;;5067626;28;19913;-72
2023/11/16 10:56:47;;;;;;;;;;;;;;;;;;5069656;28;19919;-73
2023/11/16 10:59:14;;;;;;;;;;;;;;;;;;5068600;28;19966;-72
2023/11/16 11:03:44;;;;;;;;;;;;;;;;;;5089744;27;19920;-71
2023/11/16 11:06:12;;;;;;;;;;;;;;;;;;5073739;28;19959;-72
2023/11/16 11:08:40;;;;;;;;;;;;;;;;;;5077415;28;20007;-72
2023/11/16 11:13:54;;;;;;;;;;;;;;;;;;5067238;28;20407;-71
2023/11/16 11:16:19;;;;;;;;;;;;;;;;;;5044691;28;20457;-69
2023/11/16 11:18:46;;;;;;;;;;;;;;;;;;5046274;28;20007;-70
2023/11/16 11:24:05;;;;;;;;;;;;;;;;;;5097568;27;19920;-72
2023/11/16 11:26:31;;;;;;;;;;;;;;;;;;5067557;28;19919;-67
2023/11/16 11:28:57;;;;;;;;;;;;;;;;;;5076673;28;19916;-72
2023/11/16 11:35:43;;;;;;;;;;;;;;;;;;5148576;27;19980;-70
2023/11/16 11:38:09;;;;;;;;;;;;;;;;;;5149889;27;19911;-71
2023/11/16 11:40:34;;;;;;;;;;;;;;;;;;5141240;27;20366;-70
2023/11/16 11:43:00;;;;;;;;;;;;;;;;;;5147604;27;20382;-69
2023/11/16 11:47:20;;;;;;;;;;;;;;;;;;5068351;28;19927;-69
2023/11/16 11:49:46;;;;;;;;;;;;;;;;;;5067234;28;20363;-70
2023/11/16 11:53:11;;;;;;;;;;;;;;;;;;5088885;27;19926;-71
2023/11/16 11:57:27;;;;;;;;;;;;;;;;;;5076544;28;20355;-70
2023/11/16 12:01:16;;;;;;;;;;;;;;;;;;5052968;28;19975;-69
2023/11/16 12:05:39;;;;;;;;;;;;;;;;;;5106367;27;20303;-69
2023/11/16 12:08:05;;;;;;;;;;;;;;;;;;5110768;28;19922;-69
2023/11/16 12:10:32;;;;;;;;;;;;;;;;;;5107490;28;20349;-70
2023/11/16 12:13:03;;;;;;;;;;;;;;;;;;5107503;28;19912;-69
2023/11/16 12:19:21;;;;;;;;;;;;;;;;;;5091973;27;19920;-69
2023/11/16 12:22:42;;;;;;;;;;;;;;;;;;5119352;27;19919;-69
2023/11/16 12:25:08;;;;;;;;;;;;;;;;;;5107815;28;19912;-71
2023/11/16 12:27:39;;;;;;;;;;;;;;;;;;5106140;28;19934;-70
2023/11/16 12:33:02;;;;;;;;;;;;;;;;;;5085861;27;19917;-70
2023/11/16 12:35:28;;;;;;;;;;;;;;;;;;5071304;28;19919;-71
2023/11/16 12:37:55;;;;;;;;;;;;;;;;;;5069721;28;19916;-71
2023/11/16 12:40:21;;;;;;;;;;;;;;;;;;5071305;28;20479;-69
2023/11/16 12:42:47;;;;;;;;;;;;;;;;;;5067220;28;19963;-68
2023/11/16 12:45:14;;;;;;;;;;;;;;;;;;5058768;28;20369;-72
2023/11/16 12:47:40;;;;;;;;;;;;;;;;;;5097168;28;20336;-70
2023/11/16 12:52:23;;;;;;;;;;;;;;;;;;4983998;28;2095707;-72
2023/11/16 12:54:51;;;;;;;;;;;;;;;;;;5037244;28;19917;-73
2023/11/16 12:57:18;;;;;;;;;;;;;;;;;;5035897;28;19963;-73
2023/11/16 13:02:38;;;;;;;;;;;;;;;;;;5135678;27;20450;-73
2023/11/16 13:05:07;;;;;;;;;;;;;;;;;;5138628;27;19912;-72
2023/11/16 13:07:36;;;;;;;;;;;;;;;;;;5110615;28;19907;-74
2023/11/16 13:10:03;;;;;;;;;;;;;;;;;;5108075;28;19919;-74
2023/11/16 13:12:29;;;;;;;;;;;;;;;;;;5109724;27;19916;-72
2023/11/16 13:14:55;;;;;;;;;;;;;;;;;;5129668;27;20030;-74
2023/11/16 13:19:12;;;;;;;;;;;;;;;;;;5104156;27;19930;-74
2023/11/16 13:21:38;;;;;;;;;;;;;;;;;;5099026;28;19950;-74
2023/11/16 13:24:05;;;;;;;;;;;;;;;;;;5103438;28;20475;-73
2023/11/16 13:26:33;;;;;;;;;;;;;;;;;;5091792;28;19921;-74
2023/11/16 13:29:00;;;;;;;;;;;;;;;;;;5086117;28;20022;-74
2023/11/16 13:31:26;;;;;;;;;;;;;;;;;;5095045;28;19908;-74
2023/11/16 13:33:53;;;;;;;;;;;;;;;;;;5092969;28;19957;-73
2023/11/16 13:38:27;;;;;;;;;;;;;;;;;;5147713;27;19911;-74
2023/11/16 13:41:26;;;;;;;;;;;;;;;;;;5127284;27;19918;-74
2023/11/16 13:43:52;;;;;;;;;;;;;;;;;;5126153;28;19960;-73
2023/11/16 13:47:16;;;;;;;;;;;;;;;;;;5064335;28;20611;-75
2023/11/16 13:49:42;;;;;;;;;;;;;;;;;;5066954;28;20431;-74
2023/11/16 13:52:09;;;;;;;;;;;;;;;;;;5060698;28;20381;-76
2023/11/16 13:54:44;;;;;;;;;;;;;;;;;;5059897;28;19944;-75
2023/11/16 13:57:10;;;;;;;;;;;;;;;;;;5066272;28;19908;-74
2023/11/16 14:00:05;;;;;;;;;;;;;;;;;;5086801;27;19919;-74
2023/11/16 14:02:30;;;;;;;;;;;;;;;;;;5087574;28;19912;-74
2023/11/16 14:04:57;;;;;;;;;;;;;;;;;;5087350;28;20165;-74
2023/11/16 14:07:25;;;;;;;;;;;;;;;;;;5087683;28;19931;-73
2023/11/16 14:09:52;;;;;;;;;;;;;;;;;;5086372;28;20410;-74
2023/11/16 14:12:19;;;;;;;;;;;;;;;;;;5086733;28;19944;-74
2023/11/16 14:14:45;;;;;;;;;;;;;;;;;;5085732;28;20280;-74
2023/11/16 14:17:12;;;;;;;;;;;;;;;;;;5086740;28;19908;-74
2023/11/16 14:19:39;;;;;;;;;;;;;;;;;;5086439;28;19923;-74
2023/11/16 14:22:06;;;;;;;;;;;;;;;;;;5085520;28;20295;-74
2023/11/16 14:24:32;;;;;;;;;;;;;;;;;;5084770;28;19909;-74
2023/11/16 14:27:00;;;;;;;;;;;;;;;;;;5087001;28;19931;-75
2023/11/16 14:29:26;;;;;;;;;;;;;;;;;;5087390;28;20011;-73
2023/11/16 14:31:53;;;;;;;;;;;;;;;;;;5087487;28;19912;-75
2023/11/16 14:34:19;;;;;;;;;;;;;;;;;;5088418;28;20058;-73
2023/11/16 14:37:19;;;;;;;;;;;;;;;;;;5089405;27;19923;-75
2023/11/16 14:39:45;;;;;;;;;;;;;;;;;;5088554;28;19912;-74
2023/11/16 14:43:44;;;;;;;;;;;;;;;;;;5089771;27;19938;-74
2023/11/16 14:46:40;;;;;;;;;;;;;;;;;;5088849;27;19923;-74
2023/11/16 14:51:35;;;;;;;;;;;;;;;;;;5110852;27;20264;-74
2023/11/16 14:54:01;;;;;;;;;;;;;;;;;;5109560;28;19912;-73
2023/11/16 14:58:02;;;;;;;;;;;;;;;;;;5089148;28;19913;-74
2023/11/16 15:00:28;;;;;;;;;;;;;;;;;;5087494;28;20399;-74
2023/11/16 15:02:54;;;;;;;;;;;;;;;;;;5089254;28;19909;-74
2023/11/16 15:05:20;;;;;;;;;;;;;;;;;;5088100;28;19952;-74
2023/11/16 15:08:12;;;;;;;;;;;;;;;;;;5090176;27;19923;-74
2023/11/16 15:10:38;;;;;;;432.93;248.13;;;;;;;;;;5090268;28;20788;-73
2023/11/16 15:13:06;;;;;;;;;;;;;;;;;;5091410;28;20090;-75
2023/11/16 15:15:32;;;;;;;;;;;;;;;;;;5089676;28;20403;-74
2023/11/16 15:17:57;;;;;;;;;;;;;;;;;;5091350;28;19904;-74
2023/11/16 15:20:23;;;;;;;;;;;;;;;;;;5091292;28;19910;-74
2023/11/16 15:22:52;;;;;;;;;;;;;;;;;;5090847;28;19947;-75
2023/11/16 15:25:18;;;;;;;;;;;;;;;;;;5089725;28;19998;-75
2023/11/16 15:27:44;;;;;;;;;;;;;;;;;;5090876;28;19916;-74
2023/11/16 15:30:11;;;;;;;;;;;;;;;;;;5090553;28;19926;-75
2023/11/16 15:32:37;;;;;;;;;;;;;;;;;;5090866;28;19904;-75
2023/11/16 15:35:03;;;;;;;;;;;;;;;;;;5090552;28;19910;-72
2023/11/16 15:37:29;;;;;;;;;;;;;;;;;;5091107;28;19905;-75
2023/11/16 15:39:56;;;;;;;;;;;;;;;;;;5090710;28;19911;-75
2023/11/16 15:42:25;;;;;;;;;;;;;;;;;;5090348;28;19905;-75
2023/11/16 15:44:52;;;;;;;;;;;;;;;;;;5090684;28;20023;-75
2023/11/16 15:47:18;;;;;;;;;;;;;;;;;;5090561;28;19912;-74
2023/11/16 15:49:44;;;;;;;;;;;;;;;;;;5090238;28;19911;-74
2023/11/16 15:52:10;;;;;;;;;;;;;;;;;;5090564;28;19912;-75
2023/11/16 15:54:36;;;;;;;;;;;;;;;;;;5090489;28;20292;-72
2023/11/16 15:57:05;;;;;;;;;;;;;;;;;;5090050;28;19908;-75
2023/11/16 15:59:30;;;;;;;;;;;;;;;;;;5090330;28;19904;-75
2023/11/16 16:01:56;;;;;;;;;;;;;;;;;;5090319;28;19905;-75
2023/11/16 16:04:22;;;;;;;;;;;;;;;;;;5089990;28;19911;-75
2023/11/16 16:06:49;;;;;;;;;;;;;;;;;;5089937;28;19923;-75
2023/11/16 16:09:17;;;;;;;;;;;;;;;;;;5090536;28;19966;-75
2023/11/16 16:11:43;;;;;;;;;;;;;;;;;;5089771;28;19908;-75
2023/11/16 16:14:09;;;;;;;;;;;;;;;;;;5089626;28;20334;-74
2023/11/16 16:16:35;;;;;;;;;;;;;;;;;;5090128;28;19989;-74
2023/11/16 16:19:03;;;;;;;;;;;;;;;;;;5078910;28;19930;-75
2023/11/16 16:21:29;;;;;;;;;;;;;;;;;;5076419;28;19927;-74
2023/11/16 16:23:55;;;;;;;;;;;;;;;;;;5075025;28;19947;-74
2023/11/16 16:26:21;;;;;;;;;;;;;;;;;;5075840;28;19913;-74
2023/11/16 16:28:48;;;;;;;;;;;;;;;;;;5076289;28;19962;-74
2023/11/16 16:31:14;;;;;;;;;;;;;;;;;;5074675;28;19995;-74
2023/11/16 16:33:40;;;;;;;;;;;;;;;;;;5076266;28;19957;-74
2023/11/16 16:36:08;;;;;;;;;;;;;;;;;;5076164;28;19904;-74
2023/11/16 16:38:34;;;;;;;;;;;;;;;;;;5074461;28;19908;-74
2023/11/16 16:41:00;;;;;;;;;;;;;;;;;;5074692;28;19908;-75
2023/11/16 16:43:27;;;;;;;;;;;;;;;;;;5076407;28;19912;-74
2023/11/16 16:45:54;;;;;;;;;;;;;;;;;;5075845;28;19950;-75
2023/11/16 16:48:20;;;;;;;;;;;;;;;;;;5076075;28;19909;-74
2023/11/16 16:50:46;;;;;;;;;;;;;;;;;;5075861;28;19904;-74
2023/11/16 16:53:12;;;;;;;;;;;;;;;;;;5075429;28;19954;-74
2023/11/16 16:55:39;;;;;;;;;;;;;;;;;;5075768;28;20376;-73
2023/11/16 16:58:05;;;;;;;;;;;;;;;;;;5074491;28;19904;-74
2023/11/16 17:00:31;;;;;;;;;;;;;;;;;;5075256;28;19950;-74
2023/11/16 17:02:58;;;;;;;;;;;;;;;;;;5075831;28;19911;-74
2023/11/16 17:05:24;;;;;;;;;;;;;;;;;;5074271;28;19904;-74
2023/11/16 17:07:50;;;;;;;;;;;;;;;;;;5074884;28;19917;-74
2023/11/16 17:10:17;;;;;;;;;;;;;;;;;;5075679;28;19965;-73
2023/11/16 17:12:44;;;;;;;;;;;;;;;;;;5075400;28;19951;-73
2023/11/16 17:15:10;;;;;;;;;;;;;;;;;;5075123;28;19904;-74
2023/11/16 17:17:36;;;;;;;;;;;;;;;;;;5075457;28;20323;-74
2023/11/16 17:20:11;;;;;;;;;;;;;;;;;;5074007;28;20271;-73
2023/11/16 17:22:37;;;;;;;;;;;;;;;;;;5074853;28;19908;-73
2023/11/16 17:25:04;;;;;;;;;;;;;;;;;;5075196;28;20309;-73
2023/11/16 17:27:31;;;;;;;415.83;221.20;;;;;;;;;;5074268;28;19912;-73
2023/11/16 17:29:57;;;;;;;;;;;;;;;;;;5074026;28;20028;-73
2023/11/16 17:32:24;;;;;;;;;;;;;;;;;;5073872;28;19911;-74
2023/11/16 17:34:50;;;;;;;;;;;;;;;;;;5074743;28;19908;-74
2023/11/16 17:37:16;;;;;;;;;;;;;;;;;;5074948;28;19905;-74